sensor_id;sensor_type;location;lat;lon;timestamp;P1;durP1;ratioP1;P2;durP2;ratioP2
70985;SDS011;58645;43.068;25.610;2023-06-24T00:02:13;7.75;;;5.15;;
70985;SDS011;58645;43.068;25.610;2023-06-24T00:04:39;8.10;;;5.07;;
70985;SDS011;58645;43.068;25.610;2023-06-24T00:07:05;20.90;;;13.70;;
70985;SDS011;58645;43.068;25.610;2023-06-24T00:09:31;9.25;;;6.97;;
70985;SDS011;58645;43.068;25.610;2023-06-24T00:11:57;15.65;;;11.00;;
70985;SDS011;58645;43.068;25.610;2023-06-24T00:14:24;11.55;;;8.60;;
70985;SDS011;58645;43.068;25.610;2023-06-24T00:16:51;12.77;;;9.07;;
70985;SDS011;58645;43.068;25.610;2023-06-24T00:19:24;13.02;;;9.73;;
70985;SDS011;58645;43.068;25.610;2023-06-24T00:21:51;14.68;;;9.93;;
70985;SDS011;58645;43.068;25.610;2023-06-24T00:24:21;15.57;;;10.10;;
70985;SDS011;58645;43.068;25.610;2023-06-24T00:26:54;17.77;;;10.85;;
70985;SDS011;58645;43.068;25.610;2023-06-24T00:29:20;15.13;;;10.73;;
70985;SDS011;58645;43.068;25.610;2023-06-24T00:31:46;17.17;;;10.90;;
70985;SDS011;58645;43.068;25.610;2023-06-24T00:34:12;15.23;;;10.23;;
70985;SDS011;58645;43.068;25.610;2023-06-24T00:36:37;20.83;;;12.15;;
70985;SDS011;58645;43.068;25.610;2023-06-24T00:39:03;29.95;;;12.00;;
70985;SDS011;58645;43.068;25.610;2023-06-24T00:41:33;17.00;;;10.40;;
70985;SDS011;58645;43.068;25.610;2023-06-24T00:43:59;15.43;;;10.38;;
70985;SDS011;58645;43.068;25.610;2023-06-24T00:46:26;24.60;;;14.60;;
70985;SDS011;58645;43.068;25.610;2023-06-24T00:48:54;24.00;;;12.50;;
70985;SDS011;58645;43.068;25.610;2023-06-24T00:51:21;25.63;;;16.02;;
70985;SDS011;58645;43.068;25.610;2023-06-24T00:53:51;13.05;;;8.05;;
70985;SDS011;58645;43.068;25.610;2023-06-24T00:56:21;10.10;;;5.82;;
70985;SDS011;58645;43.068;25.610;2023-06-24T00:58:49;10.43;;;5.78;;
70985;SDS011;58645;43.068;25.610;2023-06-24T01:01:15;10.05;;;4.88;;
70985;SDS011;58645;43.068;25.610;2023-06-24T01:03:42;11.43;;;5.30;;
70985;SDS011;58645;43.068;25.610;2023-06-24T01:06:08;8.27;;;5.13;;
70985;SDS011;58645;43.068;25.610;2023-06-24T01:08:35;9.07;;;5.65;;
70985;SDS011;58645;43.068;25.610;2023-06-24T01:11:01;8.38;;;5.80;;
70985;SDS011;58645;43.068;25.610;2023-06-24T01:13:26;16.70;;;7.38;;
70985;SDS011;58645;43.068;25.610;2023-06-24T01:19:02;22.52;;;14.38;;
70985;SDS011;58645;43.068;25.610;2023-06-24T01:35:00;34.38;;;23.02;;
70985;SDS011;58645;43.068;25.610;2023-06-24T01:37:42;34.65;;;26.50;;
70985;SDS011;58645;43.068;25.610;2023-06-24T01:42:52;45.33;;;34.00;;
70985;SDS011;58645;43.068;25.610;2023-06-24T01:45:23;40.58;;;30.83;;
70985;SDS011;58645;43.068;25.610;2023-06-24T01:48:00;50.92;;;34.67;;
70985;SDS011;58645;43.068;25.610;2023-06-24T01:50:32;40.15;;;24.77;;
70985;SDS011;58645;43.068;25.610;2023-06-24T01:53:01;37.78;;;24.05;;
70985;SDS011;58645;43.068;25.610;2023-06-24T01:55:31;43.65;;;23.75;;
70985;SDS011;58645;43.068;25.610;2023-06-24T01:57:58;33.40;;;22.52;;
70985;SDS011;58645;43.068;25.610;2023-06-24T02:00:27;33.90;;;18.83;;
70985;SDS011;58645;43.068;25.610;2023-06-24T02:02:54;37.08;;;22.20;;
70985;SDS011;58645;43.068;25.610;2023-06-24T02:05:20;23.42;;;12.63;;
70985;SDS011;58645;43.068;25.610;2023-06-24T02:07:47;22.25;;;10.93;;
70985;SDS011;58645;43.068;25.610;2023-06-24T02:10:15;14.52;;;8.70;;
70985;SDS011;58645;43.068;25.610;2023-06-24T02:12:42;14.75;;;10.23;;
70985;SDS011;58645;43.068;25.610;2023-06-24T02:15:10;12.95;;;7.63;;
70985;SDS011;58645;43.068;25.610;2023-06-24T02:17:37;10.38;;;6.97;;
70985;SDS011;58645;43.068;25.610;2023-06-24T02:20:05;16.65;;;9.65;;
70985;SDS011;58645;43.068;25.610;2023-06-24T02:22:35;13.18;;;7.97;;
70985;SDS011;58645;43.068;25.610;2023-06-24T02:25:04;15.85;;;10.90;;
70985;SDS011;58645;43.068;25.610;2023-06-24T02:27:31;10.93;;;5.78;;
70985;SDS011;58645;43.068;25.610;2023-06-24T02:29:58;11.10;;;7.68;;
70985;SDS011;58645;43.068;25.610;2023-06-24T02:32:25;12.60;;;7.18;;
70985;SDS011;58645;43.068;25.610;2023-06-24T02:34:51;13.55;;;8.32;;
70985;SDS011;58645;43.068;25.610;2023-06-24T02:37:17;11.70;;;6.80;;
70985;SDS011;58645;43.068;25.610;2023-06-24T02:39:43;12.38;;;8.77;;
70985;SDS011;58645;43.068;25.610;2023-06-24T02:44:36;9.15;;;6.35;;
70985;SDS011;58645;43.068;25.610;2023-06-24T02:47:03;9.27;;;7.25;;
70985;SDS011;58645;43.068;25.610;2023-06-24T02:49:30;13.40;;;8.35;;
70985;SDS011;58645;43.068;25.610;2023-06-24T02:51:56;9.38;;;7.35;;
70985;SDS011;58645;43.068;25.610;2023-06-24T02:54:22;8.18;;;5.35;;
70985;SDS011;58645;43.068;25.610;2023-06-24T02:56:49;7.53;;;5.40;;
70985;SDS011;58645;43.068;25.610;2023-06-24T02:59:15;9.30;;;5.88;;
70985;SDS011;58645;43.068;25.610;2023-06-24T03:01:41;8.32;;;4.60;;
70985;SDS011;58645;43.068;25.610;2023-06-24T03:04:10;6.90;;;4.35;;
70985;SDS011;58645;43.068;25.610;2023-06-24T03:06:36;6.50;;;4.28;;
70985;SDS011;58645;43.068;25.610;2023-06-24T03:09:04;8.48;;;4.43;;
70985;SDS011;58645;43.068;25.610;2023-06-24T03:11:31;8.18;;;4.60;;
70985;SDS011;58645;43.068;25.610;2023-06-24T03:14:06;6.72;;;4.30;;
70985;SDS011;58645;43.068;25.610;2023-06-24T03:16:31;8.70;;;5.70;;
70985;SDS011;58645;43.068;25.610;2023-06-24T03:18:58;12.55;;;6.82;;
70985;SDS011;58645;43.068;25.610;2023-06-24T03:21:24;15.15;;;10.68;;
70985;SDS011;58645;43.068;25.610;2023-06-24T03:23:53;17.88;;;11.32;;
70985;SDS011;58645;43.068;25.610;2023-06-24T03:26:19;18.55;;;10.15;;
70985;SDS011;58645;43.068;25.610;2023-06-24T03:31:11;22.30;;;14.75;;
70985;SDS011;58645;43.068;25.610;2023-06-24T03:33:40;22.33;;;17.05;;
70985;SDS011;58645;43.068;25.610;2023-06-24T03:36:09;21.27;;;13.98;;
70985;SDS011;58645;43.068;25.610;2023-06-24T03:38:36;25.17;;;15.40;;
70985;SDS011;58645;43.068;25.610;2023-06-24T03:41:02;15.00;;;11.02;;
70985;SDS011;58645;43.068;25.610;2023-06-24T03:43:27;13.23;;;8.77;;
70985;SDS011;58645;43.068;25.610;2023-06-24T03:45:53;12.75;;;8.05;;
70985;SDS011;58645;43.068;25.610;2023-06-24T03:48:20;13.40;;;7.45;;
70985;SDS011;58645;43.068;25.610;2023-06-24T03:50:45;9.80;;;5.75;;
70985;SDS011;58645;43.068;25.610;2023-06-24T03:53:11;9.60;;;6.00;;
70985;SDS011;58645;43.068;25.610;2023-06-24T03:55:37;9.48;;;6.30;;
70985;SDS011;58645;43.068;25.610;2023-06-24T03:58:03;7.93;;;5.68;;
70985;SDS011;58645;43.068;25.610;2023-06-24T04:00:29;7.82;;;5.47;;
70985;SDS011;58645;43.068;25.610;2023-06-24T04:02:55;8.60;;;5.40;;
70985;SDS011;58645;43.068;25.610;2023-06-24T04:05:20;9.77;;;5.57;;
70985;SDS011;58645;43.068;25.610;2023-06-24T04:07:49;9.13;;;5.05;;
70985;SDS011;58645;43.068;25.610;2023-06-24T04:12:43;10.48;;;5.72;;
70985;SDS011;58645;43.068;25.610;2023-06-24T04:15:09;8.18;;;5.97;;
70985;SDS011;58645;43.068;25.610;2023-06-24T04:17:35;17.20;;;7.85;;
70985;SDS011;58645;43.068;25.610;2023-06-24T04:20:01;12.45;;;8.00;;
70985;SDS011;58645;43.068;25.610;2023-06-24T04:22:29;14.30;;;8.88;;
70985;SDS011;58645;43.068;25.610;2023-06-24T04:24:55;12.68;;;8.82;;
70985;SDS011;58645;43.068;25.610;2023-06-24T04:27:20;20.13;;;10.05;;
70985;SDS011;58645;43.068;25.610;2023-06-24T04:29:46;18.38;;;12.45;;
70985;SDS011;58645;43.068;25.610;2023-06-24T04:32:12;20.02;;;13.75;;
70985;SDS011;58645;43.068;25.610;2023-06-24T04:34:37;16.10;;;12.43;;
70985;SDS011;58645;43.068;25.610;2023-06-24T04:37:05;14.80;;;11.38;;
70985;SDS011;58645;43.068;25.610;2023-06-24T04:39:31;11.60;;;8.90;;
70985;SDS011;58645;43.068;25.610;2023-06-24T04:41:56;17.10;;;12.13;;
70985;SDS011;58645;43.068;25.610;2023-06-24T04:44:22;18.45;;;12.75;;
70985;SDS011;58645;43.068;25.610;2023-06-24T04:46:48;18.75;;;13.60;;
70985;SDS011;58645;43.068;25.610;2023-06-24T04:49:14;19.13;;;13.52;;
70985;SDS011;58645;43.068;25.610;2023-06-24T04:54:06;21.33;;;14.70;;
70985;SDS011;58645;43.068;25.610;2023-06-24T04:56:32;16.60;;;9.20;;
70985;SDS011;58645;43.068;25.610;2023-06-24T04:58:59;9.38;;;5.70;;
70985;SDS011;58645;43.068;25.610;2023-06-24T05:01:25;9.60;;;6.78;;
70985;SDS011;58645;43.068;25.610;2023-06-24T05:06:17;7.50;;;5.30;;
70985;SDS011;58645;43.068;25.610;2023-06-24T05:11:08;8.25;;;5.20;;
70985;SDS011;58645;43.068;25.610;2023-06-24T05:15:59;9.20;;;5.32;;
70985;SDS011;58645;43.068;25.610;2023-06-24T05:18:25;9.02;;;5.53;;
70985;SDS011;58645;43.068;25.610;2023-06-24T05:23:17;9.77;;;5.28;;
70985;SDS011;58645;43.068;25.610;2023-06-24T05:28:08;6.63;;;4.35;;
70985;SDS011;58645;43.068;25.610;2023-06-24T05:33:00;13.05;;;5.50;;
70985;SDS011;58645;43.068;25.610;2023-06-24T05:37:51;9.88;;;5.15;;
70985;SDS011;58645;43.068;25.610;2023-06-24T05:42:42;7.47;;;4.65;;
70985;SDS011;58645;43.068;25.610;2023-06-24T05:47:34;7.72;;;4.65;;
70985;SDS011;58645;43.068;25.610;2023-06-24T05:52:25;6.45;;;4.55;;
70985;SDS011;58645;43.068;25.610;2023-06-24T05:57:16;8.20;;;4.93;;
70985;SDS011;58645;43.068;25.610;2023-06-24T05:59:42;8.02;;;4.88;;
70985;SDS011;58645;43.068;25.610;2023-06-24T06:02:08;6.57;;;5.10;;
70985;SDS011;58645;43.068;25.610;2023-06-24T06:04:34;6.60;;;4.93;;
70985;SDS011;58645;43.068;25.610;2023-06-24T06:07:00;7.75;;;5.50;;
70985;SDS011;58645;43.068;25.610;2023-06-24T06:09:26;10.40;;;5.65;;
70985;SDS011;58645;43.068;25.610;2023-06-24T06:11:51;6.38;;;4.75;;
70985;SDS011;58645;43.068;25.610;2023-06-24T06:14:17;5.72;;;4.72;;
70985;SDS011;58645;43.068;25.610;2023-06-24T06:16:43;7.05;;;4.65;;
70985;SDS011;58645;43.068;25.610;2023-06-24T06:19:08;7.60;;;4.85;;
70985;SDS011;58645;43.068;25.610;2023-06-24T06:21:36;6.20;;;4.30;;
70985;SDS011;58645;43.068;25.610;2023-06-24T06:24:02;6.57;;;4.88;;
70985;SDS011;58645;43.068;25.610;2023-06-24T06:26:28;7.53;;;5.07;;
70985;SDS011;58645;43.068;25.610;2023-06-24T06:28:53;6.07;;;4.78;;
70985;SDS011;58645;43.068;25.610;2023-06-24T06:31:19;7.90;;;4.70;;
70985;SDS011;58645;43.068;25.610;2023-06-24T06:33:46;5.53;;;4.40;;
70985;SDS011;58645;43.068;25.610;2023-06-24T06:36:12;7.45;;;4.88;;
70985;SDS011;58645;43.068;25.610;2023-06-24T06:38:40;5.90;;;4.68;;
70985;SDS011;58645;43.068;25.610;2023-06-24T06:41:06;7.03;;;4.63;;
70985;SDS011;58645;43.068;25.610;2023-06-24T06:43:32;7.10;;;4.63;;
70985;SDS011;58645;43.068;25.610;2023-06-24T06:45:58;6.25;;;4.60;;
70985;SDS011;58645;43.068;25.610;2023-06-24T06:48:24;6.60;;;4.88;;
70985;SDS011;58645;43.068;25.610;2023-06-24T06:50:50;7.70;;;4.78;;
70985;SDS011;58645;43.068;25.610;2023-06-24T06:53:17;7.22;;;5.90;;
70985;SDS011;58645;43.068;25.610;2023-06-24T06:55:43;8.43;;;5.55;;
70985;SDS011;58645;43.068;25.610;2023-06-24T06:58:09;7.80;;;5.20;;
70985;SDS011;58645;43.068;25.610;2023-06-24T07:00:35;5.82;;;4.57;;
70985;SDS011;58645;43.068;25.610;2023-06-24T07:03:00;8.52;;;5.88;;
70985;SDS011;58645;43.068;25.610;2023-06-24T07:05:27;9.30;;;5.43;;
70985;SDS011;58645;43.068;25.610;2023-06-24T07:07:52;13.25;;;6.93;;
70985;SDS011;58645;43.068;25.610;2023-06-24T07:10:18;10.30;;;6.00;;
70985;SDS011;58645;43.068;25.610;2023-06-24T07:12:45;7.32;;;4.70;;
70985;SDS011;58645;43.068;25.610;2023-06-24T07:15:11;7.47;;;5.47;;
70985;SDS011;58645;43.068;25.610;2023-06-24T07:17:36;8.80;;;6.40;;
70985;SDS011;58645;43.068;25.610;2023-06-24T07:20:02;7.97;;;5.43;;
70985;SDS011;58645;43.068;25.610;2023-06-24T07:22:28;5.95;;;4.47;;
70985;SDS011;58645;43.068;25.610;2023-06-24T07:24:55;6.72;;;4.53;;
70985;SDS011;58645;43.068;25.610;2023-06-24T07:27:22;5.55;;;4.80;;
70985;SDS011;58645;43.068;25.610;2023-06-24T07:29:47;6.60;;;4.88;;
70985;SDS011;58645;43.068;25.610;2023-06-24T07:32:13;6.05;;;4.38;;
70985;SDS011;58645;43.068;25.610;2023-06-24T07:34:39;5.32;;;4.63;;
70985;SDS011;58645;43.068;25.610;2023-06-24T07:37:04;5.75;;;5.10;;
70985;SDS011;58645;43.068;25.610;2023-06-24T07:39:30;6.10;;;4.78;;
70985;SDS011;58645;43.068;25.610;2023-06-24T07:41:56;7.53;;;4.72;;
70985;SDS011;58645;43.068;25.610;2023-06-24T07:44:22;6.30;;;4.80;;
70985;SDS011;58645;43.068;25.610;2023-06-24T07:46:47;5.10;;;4.38;;
70985;SDS011;58645;43.068;25.610;2023-06-24T07:49:14;6.18;;;4.57;;
70985;SDS011;58645;43.068;25.610;2023-06-24T07:51:39;6.47;;;4.63;;
70985;SDS011;58645;43.068;25.610;2023-06-24T07:54:05;5.18;;;4.32;;
70985;SDS011;58645;43.068;25.610;2023-06-24T07:56:31;4.53;;;3.97;;
70985;SDS011;58645;43.068;25.610;2023-06-24T07:58:57;5.32;;;4.55;;
70985;SDS011;58645;43.068;25.610;2023-06-24T08:01:22;6.85;;;4.72;;
70985;SDS011;58645;43.068;25.610;2023-06-24T08:03:48;6.35;;;5.00;;
70985;SDS011;58645;43.068;25.610;2023-06-24T08:06:14;5.40;;;4.70;;
70985;SDS011;58645;43.068;25.610;2023-06-24T08:08:40;5.05;;;4.55;;
70985;SDS011;58645;43.068;25.610;2023-06-24T08:11:05;5.57;;;4.50;;
70985;SDS011;58645;43.068;25.610;2023-06-24T08:13:31;6.55;;;4.82;;
70985;SDS011;58645;43.068;25.610;2023-06-24T08:15:57;8.18;;;4.95;;
70985;SDS011;58645;43.068;25.610;2023-06-24T08:18:23;5.75;;;4.40;;
70985;SDS011;58645;43.068;25.610;2023-06-24T08:20:48;5.97;;;4.20;;
70985;SDS011;58645;43.068;25.610;2023-06-24T08:23:14;5.60;;;4.53;;
70985;SDS011;58645;43.068;25.610;2023-06-24T08:25:40;8.00;;;4.68;;
70985;SDS011;58645;43.068;25.610;2023-06-24T08:28:05;5.78;;;4.65;;
70985;SDS011;58645;43.068;25.610;2023-06-24T08:30:31;7.45;;;5.07;;
70985;SDS011;58645;43.068;25.610;2023-06-24T08:32:58;6.45;;;4.72;;
70985;SDS011;58645;43.068;25.610;2023-06-24T08:35:23;6.50;;;4.45;;
70985;SDS011;58645;43.068;25.610;2023-06-24T08:37:49;5.63;;;4.53;;
70985;SDS011;58645;43.068;25.610;2023-06-24T08:40:15;5.28;;;4.30;;
70985;SDS011;58645;43.068;25.610;2023-06-24T08:42:42;5.75;;;4.28;;
70985;SDS011;58645;43.068;25.610;2023-06-24T08:45:09;6.22;;;4.25;;
70985;SDS011;58645;43.068;25.610;2023-06-24T08:47:35;4.32;;;3.80;;
70985;SDS011;58645;43.068;25.610;2023-06-24T08:50:05;5.63;;;4.60;;
70985;SDS011;58645;43.068;25.610;2023-06-24T08:52:36;6.10;;;4.40;;
70985;SDS011;58645;43.068;25.610;2023-06-24T08:55:04;5.50;;;3.95;;
70985;SDS011;58645;43.068;25.610;2023-06-24T09:00:01;5.75;;;4.43;;
70985;SDS011;58645;43.068;25.610;2023-06-24T09:02:29;5.75;;;4.38;;
70985;SDS011;58645;43.068;25.610;2023-06-24T09:04:57;5.93;;;4.93;;
70985;SDS011;58645;43.068;25.610;2023-06-24T09:07:26;6.75;;;4.90;;
70985;SDS011;58645;43.068;25.610;2023-06-24T09:09:53;13.18;;;4.75;;
70985;SDS011;58645;43.068;25.610;2023-06-24T09:12:19;4.85;;;4.35;;
70985;SDS011;58645;43.068;25.610;2023-06-24T09:14:48;5.35;;;4.20;;
70985;SDS011;58645;43.068;25.610;2023-06-24T09:17:14;4.85;;;3.85;;
70985;SDS011;58645;43.068;25.610;2023-06-24T09:19:40;5.55;;;3.80;;
70985;SDS011;58645;43.068;25.610;2023-06-24T09:22:07;4.95;;;4.45;;
70985;SDS011;58645;43.068;25.610;2023-06-24T09:24:41;4.93;;;4.35;;
70985;SDS011;58645;43.068;25.610;2023-06-24T09:27:07;5.10;;;4.18;;
70985;SDS011;58645;43.068;25.610;2023-06-24T09:29:33;6.60;;;3.70;;
70985;SDS011;58645;43.068;25.610;2023-06-24T09:32:03;5.90;;;4.05;;
70985;SDS011;58645;43.068;25.610;2023-06-24T09:34:30;6.72;;;4.22;;
70985;SDS011;58645;43.068;25.610;2023-06-24T09:36:57;7.38;;;4.13;;
70985;SDS011;58645;43.068;25.610;2023-06-24T09:39:24;6.82;;;3.88;;
70985;SDS011;58645;43.068;25.610;2023-06-24T09:41:55;5.15;;;3.92;;
70985;SDS011;58645;43.068;25.610;2023-06-24T09:44:21;4.32;;;3.92;;
70985;SDS011;58645;43.068;25.610;2023-06-24T09:46:47;4.88;;;4.00;;
70985;SDS011;58645;43.068;25.610;2023-06-24T09:49:13;5.40;;;4.20;;
70985;SDS011;58645;43.068;25.610;2023-06-24T09:51:40;5.20;;;4.03;;
70985;SDS011;58645;43.068;25.610;2023-06-24T09:54:09;5.72;;;4.10;;
70985;SDS011;58645;43.068;25.610;2023-06-24T09:56:37;7.82;;;4.28;;
70985;SDS011;58645;43.068;25.610;2023-06-24T09:59:07;4.47;;;3.90;;
70985;SDS011;58645;43.068;25.610;2023-06-24T10:01:34;7.30;;;4.32;;
70985;SDS011;58645;43.068;25.610;2023-06-24T10:04:03;7.22;;;4.45;;
70985;SDS011;58645;43.068;25.610;2023-06-24T10:06:30;7.13;;;4.38;;
70985;SDS011;58645;43.068;25.610;2023-06-24T10:09:00;4.82;;;4.00;;
70985;SDS011;58645;43.068;25.610;2023-06-24T10:11:26;5.85;;;4.70;;
70985;SDS011;58645;43.068;25.610;2023-06-24T10:13:52;6.78;;;4.40;;
70985;SDS011;58645;43.068;25.610;2023-06-24T10:16:20;6.90;;;4.20;;
70985;SDS011;58645;43.068;25.610;2023-06-24T10:18:45;4.88;;;4.28;;
70985;SDS011;58645;43.068;25.610;2023-06-24T10:21:12;4.85;;;4.35;;
70985;SDS011;58645;43.068;25.610;2023-06-24T10:26:21;6.15;;;4.43;;
70985;SDS011;58645;43.068;25.610;2023-06-24T10:34:20;4.68;;;4.13;;
70985;SDS011;58645;43.068;25.610;2023-06-24T10:37:01;6.05;;;4.20;;
70985;SDS011;58645;43.068;25.610;2023-06-24T10:47:17;8.43;;;4.72;;
70985;SDS011;58645;43.068;25.610;2023-06-24T10:49:43;5.20;;;4.70;;
70985;SDS011;58645;43.068;25.610;2023-06-24T10:52:09;4.68;;;4.18;;
70985;SDS011;58645;43.068;25.610;2023-06-24T10:54:39;5.50;;;4.55;;
70985;SDS011;58645;43.068;25.610;2023-06-24T10:57:06;5.55;;;4.30;;
70985;SDS011;58645;43.068;25.610;2023-06-24T10:59:36;4.90;;;4.40;;
70985;SDS011;58645;43.068;25.610;2023-06-24T11:02:23;5.18;;;4.68;;
70985;SDS011;58645;43.068;25.610;2023-06-24T11:04:53;5.38;;;4.63;;
70985;SDS011;58645;43.068;25.610;2023-06-24T11:07:20;5.10;;;4.50;;
70985;SDS011;58645;43.068;25.610;2023-06-24T11:09:51;6.65;;;4.68;;
70985;SDS011;58645;43.068;25.610;2023-06-24T11:12:18;5.30;;;4.32;;
70985;SDS011;58645;43.068;25.610;2023-06-24T11:14:44;6.70;;;4.43;;
70985;SDS011;58645;43.068;25.610;2023-06-24T11:17:10;4.82;;;4.32;;
70985;SDS011;58645;43.068;25.610;2023-06-24T11:19:36;4.57;;;4.10;;
70985;SDS011;58645;43.068;25.610;2023-06-24T11:22:05;5.97;;;4.68;;
70985;SDS011;58645;43.068;25.610;2023-06-24T11:24:32;5.75;;;4.45;;
70985;SDS011;58645;43.068;25.610;2023-06-24T11:26:59;5.45;;;4.57;;
70985;SDS011;58645;43.068;25.610;2023-06-24T11:29:28;5.28;;;4.53;;
70985;SDS011;58645;43.068;25.610;2023-06-24T11:31:55;5.47;;;4.00;;
70985;SDS011;58645;43.068;25.610;2023-06-24T11:34:21;4.80;;;4.25;;
70985;SDS011;58645;43.068;25.610;2023-06-24T11:36:47;5.00;;;4.53;;
70985;SDS011;58645;43.068;25.610;2023-06-24T11:39:24;7.38;;;4.20;;
70985;SDS011;58645;43.068;25.610;2023-06-24T11:41:53;4.38;;;3.97;;
70985;SDS011;58645;43.068;25.610;2023-06-24T11:44:25;5.45;;;3.97;;
70985;SDS011;58645;43.068;25.610;2023-06-24T11:46:51;5.53;;;4.78;;
70985;SDS011;58645;43.068;25.610;2023-06-24T11:49:18;5.10;;;4.38;;
70985;SDS011;58645;43.068;25.610;2023-06-24T11:51:48;5.57;;;3.85;;
70985;SDS011;58645;43.068;25.610;2023-06-24T11:54:18;4.90;;;3.90;;
70985;SDS011;58645;43.068;25.610;2023-06-24T11:56:54;4.72;;;3.97;;
70985;SDS011;58645;43.068;25.610;2023-06-24T12:01:53;5.18;;;4.10;;
70985;SDS011;58645;43.068;25.610;2023-06-24T12:04:21;4.78;;;4.05;;
70985;SDS011;58645;43.068;25.610;2023-06-24T12:06:52;4.50;;;3.83;;
70985;SDS011;58645;43.068;25.610;2023-06-24T12:09:17;4.68;;;3.80;;
70985;SDS011;58645;43.068;25.610;2023-06-24T12:11:43;3.92;;;3.53;;
70985;SDS011;58645;43.068;25.610;2023-06-24T12:14:10;4.10;;;3.53;;
70985;SDS011;58645;43.068;25.610;2023-06-24T12:16:35;4.45;;;3.40;;
70985;SDS011;58645;43.068;25.610;2023-06-24T12:19:03;5.22;;;3.85;;
70985;SDS011;58645;43.068;25.610;2023-06-24T12:21:29;6.05;;;3.60;;
70985;SDS011;58645;43.068;25.610;2023-06-24T12:23:55;3.92;;;3.10;;
70985;SDS011;58645;43.068;25.610;2023-06-24T12:26:20;4.25;;;3.65;;
70985;SDS011;58645;43.068;25.610;2023-06-24T12:28:46;5.38;;;3.95;;
70985;SDS011;58645;43.068;25.610;2023-06-24T12:31:12;5.15;;;3.72;;
70985;SDS011;58645;43.068;25.610;2023-06-24T12:33:37;3.97;;;3.47;;
70985;SDS011;58645;43.068;25.610;2023-06-24T12:36:03;4.93;;;3.45;;
70985;SDS011;58645;43.068;25.610;2023-06-24T12:38:29;6.22;;;3.45;;
70985;SDS011;58645;43.068;25.610;2023-06-24T12:40:56;3.60;;;3.22;;
70985;SDS011;58645;43.068;25.610;2023-06-24T12:43:22;3.92;;;3.30;;
70985;SDS011;58645;43.068;25.610;2023-06-24T12:45:48;3.88;;;3.10;;
70985;SDS011;58645;43.068;25.610;2023-06-24T12:48:16;4.43;;;3.58;;
70985;SDS011;58645;43.068;25.610;2023-06-24T12:50:41;4.68;;;3.13;;
70985;SDS011;58645;43.068;25.610;2023-06-24T12:53:07;5.00;;;3.42;;
70985;SDS011;58645;43.068;25.610;2023-06-24T12:55:36;3.20;;;2.67;;
70985;SDS011;58645;43.068;25.610;2023-06-24T12:58:02;3.45;;;3.15;;
70985;SDS011;58645;43.068;25.610;2023-06-24T13:00:27;3.72;;;3.10;;
70985;SDS011;58645;43.068;25.610;2023-06-24T13:02:53;4.30;;;3.60;;
70985;SDS011;58645;43.068;25.610;2023-06-24T13:05:19;4.35;;;3.20;;
70985;SDS011;58645;43.068;25.610;2023-06-24T13:07:45;5.00;;;3.50;;
70985;SDS011;58645;43.068;25.610;2023-06-24T13:10:11;5.68;;;3.30;;
70985;SDS011;58645;43.068;25.610;2023-06-24T13:12:37;3.38;;;3.08;;
70985;SDS011;58645;43.068;25.610;2023-06-24T13:15:03;3.30;;;2.85;;
70985;SDS011;58645;43.068;25.610;2023-06-24T13:17:30;3.30;;;3.00;;
70985;SDS011;58645;43.068;25.610;2023-06-24T13:19:56;4.10;;;3.20;;
70985;SDS011;58645;43.068;25.610;2023-06-24T13:22:22;3.97;;;3.20;;
70985;SDS011;58645;43.068;25.610;2023-06-24T13:24:48;5.70;;;3.72;;
70985;SDS011;58645;43.068;25.610;2023-06-24T13:27:14;4.15;;;3.28;;
70985;SDS011;58645;43.068;25.610;2023-06-24T13:29:39;4.32;;;3.60;;
70985;SDS011;58645;43.068;25.610;2023-06-24T13:32:05;4.72;;;3.60;;
70985;SDS011;58645;43.068;25.610;2023-06-24T13:34:31;4.65;;;4.00;;
70985;SDS011;58645;43.068;25.610;2023-06-24T13:36:57;4.65;;;4.07;;
70985;SDS011;58645;43.068;25.610;2023-06-24T13:39:23;4.38;;;3.70;;
70985;SDS011;58645;43.068;25.610;2023-06-24T13:41:49;4.68;;;3.63;;
70985;SDS011;58645;43.068;25.610;2023-06-24T13:44:15;4.80;;;3.38;;
70985;SDS011;58645;43.068;25.610;2023-06-24T13:46:41;4.20;;;3.17;;
70985;SDS011;58645;43.068;25.610;2023-06-24T13:49:07;5.63;;;3.70;;
70985;SDS011;58645;43.068;25.610;2023-06-24T13:51:33;4.07;;;3.65;;
70985;SDS011;58645;43.068;25.610;2023-06-24T13:53:59;4.25;;;3.80;;
70985;SDS011;58645;43.068;25.610;2023-06-24T13:56:25;5.30;;;3.53;;
70985;SDS011;58645;43.068;25.610;2023-06-24T13:58:52;4.03;;;3.63;;
70985;SDS011;58645;43.068;25.610;2023-06-24T14:01:19;4.85;;;4.25;;
70985;SDS011;58645;43.068;25.610;2023-06-24T14:03:46;4.68;;;3.70;;
70985;SDS011;58645;43.068;25.610;2023-06-24T14:06:15;4.50;;;4.10;;
70985;SDS011;58645;43.068;25.610;2023-06-24T14:08:43;5.28;;;4.03;;
70985;SDS011;58645;43.068;25.610;2023-06-24T14:11:10;7.20;;;3.85;;
70985;SDS011;58645;43.068;25.610;2023-06-24T14:13:36;7.63;;;4.40;;
70985;SDS011;58645;43.068;25.610;2023-06-24T14:16:02;5.65;;;4.05;;
70985;SDS011;58645;43.068;25.610;2023-06-24T14:18:29;5.18;;;3.85;;
70985;SDS011;58645;43.068;25.610;2023-06-24T14:20:58;5.43;;;4.05;;
70985;SDS011;58645;43.068;25.610;2023-06-24T14:23:24;5.30;;;3.85;;
70985;SDS011;58645;43.068;25.610;2023-06-24T14:25:51;4.93;;;3.90;;
70985;SDS011;58645;43.068;25.610;2023-06-24T14:28:17;4.80;;;3.95;;
70985;SDS011;58645;43.068;25.610;2023-06-24T14:30:43;4.95;;;3.97;;
70985;SDS011;58645;43.068;25.610;2023-06-24T14:33:11;5.47;;;4.35;;
70985;SDS011;58645;43.068;25.610;2023-06-24T14:35:37;5.20;;;3.75;;
70985;SDS011;58645;43.068;25.610;2023-06-24T14:38:03;5.63;;;3.75;;
70985;SDS011;58645;43.068;25.610;2023-06-24T14:40:28;5.90;;;4.15;;
70985;SDS011;58645;43.068;25.610;2023-06-24T14:42:54;5.60;;;4.35;;
70985;SDS011;58645;43.068;25.610;2023-06-24T14:45:20;5.30;;;4.60;;
70985;SDS011;58645;43.068;25.610;2023-06-24T14:47:46;5.40;;;4.32;;
70985;SDS011;58645;43.068;25.610;2023-06-24T14:50:12;6.00;;;4.35;;
70985;SDS011;58645;43.068;25.610;2023-06-24T14:52:37;6.90;;;4.47;;
70985;SDS011;58645;43.068;25.610;2023-06-24T14:55:03;7.65;;;4.40;;
70985;SDS011;58645;43.068;25.610;2023-06-24T14:57:29;6.22;;;4.95;;
70985;SDS011;58645;43.068;25.610;2023-06-24T14:59:55;7.00;;;4.55;;
70985;SDS011;58645;43.068;25.610;2023-06-24T15:02:20;7.55;;;4.45;;
70985;SDS011;58645;43.068;25.610;2023-06-24T15:04:46;7.07;;;4.53;;
70985;SDS011;58645;43.068;25.610;2023-06-24T15:07:12;5.35;;;4.50;;
70985;SDS011;58645;43.068;25.610;2023-06-24T15:09:37;5.07;;;4.43;;
70985;SDS011;58645;43.068;25.610;2023-06-24T15:12:03;8.82;;;4.78;;
70985;SDS011;58645;43.068;25.610;2023-06-24T15:14:29;7.63;;;5.00;;
70985;SDS011;58645;43.068;25.610;2023-06-24T15:16:55;6.45;;;4.57;;
70985;SDS011;58645;43.068;25.610;2023-06-24T15:19:23;5.80;;;4.15;;
70985;SDS011;58645;43.068;25.610;2023-06-24T15:21:49;7.32;;;4.68;;
70985;SDS011;58645;43.068;25.610;2023-06-24T15:24:15;8.50;;;5.00;;
70985;SDS011;58645;43.068;25.610;2023-06-24T15:26:40;6.95;;;4.60;;
70985;SDS011;58645;43.068;25.610;2023-06-24T15:29:06;5.30;;;4.45;;
70985;SDS011;58645;43.068;25.610;2023-06-24T15:31:32;6.22;;;4.38;;
70985;SDS011;58645;43.068;25.610;2023-06-24T15:33:58;5.13;;;4.20;;
70985;SDS011;58645;43.068;25.610;2023-06-24T15:36:23;5.28;;;4.47;;
70985;SDS011;58645;43.068;25.610;2023-06-24T15:38:52;5.20;;;4.30;;
70985;SDS011;58645;43.068;25.610;2023-06-24T15:41:21;5.40;;;4.45;;
70985;SDS011;58645;43.068;25.610;2023-06-24T15:43:47;6.15;;;4.55;;